sensor_id;sensor_type;location;lat;lon;timestamp;P1;durP1;ratioP1;P2;durP2;ratioP2
46745;SDS011;32493;50.514;9.678;2023-05-15T00:00:44;5.45;;;4.57;;
46745;SDS011;32493;50.514;9.678;2023-05-15T00:02:52;5.70;;;3.90;;
46745;SDS011;32493;50.514;9.678;2023-05-15T00:05:12;4.93;;;3.95;;
46745;SDS011;32493;50.514;9.678;2023-05-15T00:07:18;10.00;;;4.70;;
46745;SDS011;32493;50.514;9.678;2023-05-15T00:09:25;5.97;;;4.82;;
46745;SDS011;32493;50.514;9.678;2023-05-15T00:11:35;115.88;;;8.02;;
46745;SDS011;32493;50.514;9.678;2023-05-15T00:13:46;48.88;;;5.97;;
46745;SDS011;32493;50.514;9.678;2023-05-15T00:15:55;158.65;;;9.75;;
46745;SDS011;32493;50.514;9.678;2023-05-15T00:18:05;125.93;;;8.60;;
46745;SDS011;32493;50.514;9.678;2023-05-15T00:20:12;64.80;;;7.07;;
46745;SDS011;32493;50.514;9.678;2023-05-15T00:22:17;71.68;;;7.30;;
46745;SDS011;32493;50.514;9.678;2023-05-15T00:24:23;51.10;;;7.55;;
46745;SDS011;32493;50.514;9.678;2023-05-15T00:26:50;65.78;;;8.43;;
46745;SDS011;32493;50.514;9.678;2023-05-15T00:28:58;145.65;;;10.18;;
46745;SDS011;32493;50.514;9.678;2023-05-15T00:31:09;88.93;;;8.57;;
46745;SDS011;32493;50.514;9.678;2023-05-15T00:33:16;139.50;;;10.77;;
46745;SDS011;32493;50.514;9.678;2023-05-15T00:35:28;101.53;;;8.70;;
46745;SDS011;32493;50.514;9.678;2023-05-15T00:37:39;94.47;;;9.48;;
46745;SDS011;32493;50.514;9.678;2023-05-15T00:39:49;174.88;;;11.10;;
46745;SDS011;32493;50.514;9.678;2023-05-15T00:41:54;89.15;;;8.13;;
46745;SDS011;32493;50.514;9.678;2023-05-15T00:44:08;89.07;;;9.30;;
46745;SDS011;32493;50.514;9.678;2023-05-15T00:46:17;16.90;;;7.45;;
46745;SDS011;32493;50.514;9.678;2023-05-15T00:48:25;15.70;;;7.00;;
46745;SDS011;32493;50.514;9.678;2023-05-15T00:50:36;13.40;;;7.18;;
46745;SDS011;32493;50.514;9.678;2023-05-15T00:52:48;9.20;;;6.70;;
46745;SDS011;32493;50.514;9.678;2023-05-15T00:55:00;18.88;;;7.03;;
46745;SDS011;32493;50.514;9.678;2023-05-15T00:57:07;7.65;;;6.20;;
46745;SDS011;32493;50.514;9.678;2023-05-15T00:59:13;9.38;;;6.88;;
46745;SDS011;32493;50.514;9.678;2023-05-15T01:01:23;6.80;;;5.82;;
46745;SDS011;32493;50.514;9.678;2023-05-15T01:03:36;16.50;;;7.03;;
46745;SDS011;32493;50.514;9.678;2023-05-15T01:05:43;11.05;;;6.80;;
46745;SDS011;32493;50.514;9.678;2023-05-15T01:07:51;199.90;;;11.27;;
46745;SDS011;32493;50.514;9.678;2023-05-15T01:10:05;27.17;;;6.30;;
46745;SDS011;32493;50.514;9.678;2023-05-15T01:12:14;10.10;;;6.30;;
46745;SDS011;32493;50.514;9.678;2023-05-15T01:14:22;10.35;;;6.28;;
46745;SDS011;32493;50.514;9.678;2023-05-15T01:16:34;8.13;;;5.95;;
46745;SDS011;32493;50.514;9.678;2023-05-15T01:18:49;7.40;;;5.50;;
46745;SDS011;32493;50.514;9.678;2023-05-15T01:21:04;17.33;;;4.57;;
46745;SDS011;32493;50.514;9.678;2023-05-15T01:23:52;5.30;;;3.97;;
46745;SDS011;32493;50.514;9.678;2023-05-15T01:26:31;5.00;;;3.72;;
46745;SDS011;32493;50.514;9.678;2023-05-15T01:29:06;5.15;;;4.65;;
46745;SDS011;32493;50.514;9.678;2023-05-15T01:31:23;7.70;;;5.18;;
46745;SDS011;32493;50.514;9.678;2023-05-15T01:33:39;102.32;;;7.95;;
46745;SDS011;32493;50.514;9.678;2023-05-15T01:35:49;343.23;;;14.38;;
46745;SDS011;32493;50.514;9.678;2023-05-15T01:40:17;90.47;;;7.68;;
46745;SDS011;32493;50.514;9.678;2023-05-15T01:42:28;41.65;;;6.93;;
46745;SDS011;32493;50.514;9.678;2023-05-15T01:44:43;10.75;;;6.25;;
46745;SDS011;32493;50.514;9.678;2023-05-15T01:47:03;12.82;;;6.50;;
46745;SDS011;32493;50.514;9.678;2023-05-15T01:49:18;104.57;;;6.93;;
46745;SDS011;32493;50.514;9.678;2023-05-15T01:51:26;29.23;;;5.70;;
46745;SDS011;32493;50.514;9.678;2023-05-15T01:53:34;14.20;;;5.30;;
46745;SDS011;32493;50.514;9.678;2023-05-15T01:55:45;8.88;;;5.03;;
46745;SDS011;32493;50.514;9.678;2023-05-15T01:57:55;12.43;;;5.60;;
46745;SDS011;32493;50.514;9.678;2023-05-15T02:00:10;9.80;;;5.38;;
46745;SDS011;32493;50.514;9.678;2023-05-15T02:02:22;5.03;;;4.05;;
46745;SDS011;32493;50.514;9.678;2023-05-15T02:04:35;6.40;;;4.32;;
46745;SDS011;32493;50.514;9.678;2023-05-15T02:06:43;7.10;;;5.63;;
46745;SDS011;32493;50.514;9.678;2023-05-15T02:08:56;6.88;;;5.18;;
46745;SDS011;32493;50.514;9.678;2023-05-15T02:11:05;5.95;;;4.68;;
46745;SDS011;32493;50.514;9.678;2023-05-15T02:13:13;7.45;;;5.72;;
46745;SDS011;32493;50.514;9.678;2023-05-15T02:15:22;9.13;;;4.70;;
46745;SDS011;32493;50.514;9.678;2023-05-15T02:17:28;12.23;;;4.78;;
46745;SDS011;32493;50.514;9.678;2023-05-15T02:19:41;43.10;;;6.50;;
46745;SDS011;32493;50.514;9.678;2023-05-15T02:21:54;13.80;;;5.75;;
46745;SDS011;32493;50.514;9.678;2023-05-15T02:24:14;12.63;;;5.38;;
46745;SDS011;32493;50.514;9.678;2023-05-15T02:26:25;7.05;;;5.20;;
46745;SDS011;32493;50.514;9.678;2023-05-15T02:28:42;8.38;;;5.57;;
46745;SDS011;32493;50.514;9.678;2023-05-15T02:30:57;6.95;;;5.07;;
46745;SDS011;32493;50.514;9.678;2023-05-15T02:33:25;8.13;;;5.15;;
46745;SDS011;32493;50.514;9.678;2023-05-15T02:35:43;7.35;;;4.50;;
46745;SDS011;32493;50.514;9.678;2023-05-15T02:38:04;185.75;;;9.15;;
46745;SDS011;32493;50.514;9.678;2023-05-15T02:40:28;101.10;;;8.00;;
46745;SDS011;32493;50.514;9.678;2023-05-15T02:42:39;183.43;;;7.88;;
46745;SDS011;32493;50.514;9.678;2023-05-15T02:44:45;252.73;;;10.13;;
46745;SDS011;32493;50.514;9.678;2023-05-15T02:46:54;298.15;;;11.82;;
46745;SDS011;32493;50.514;9.678;2023-05-15T02:49:04;195.70;;;9.90;;
46745;SDS011;32493;50.514;9.678;2023-05-15T02:51:13;235.45;;;12.23;;
46745;SDS011;32493;50.514;9.678;2023-05-15T02:53:19;145.00;;;9.30;;
46745;SDS011;32493;50.514;9.678;2023-05-15T02:55:26;139.10;;;8.63;;
46745;SDS011;32493;50.514;9.678;2023-05-15T02:57:54;165.20;;;9.35;;
46745;SDS011;32493;50.514;9.678;2023-05-15T03:00:02;30.95;;;6.28;;
46745;SDS011;32493;50.514;9.678;2023-05-15T03:02:13;49.80;;;6.07;;
46745;SDS011;32493;50.514;9.678;2023-05-15T03:04:22;92.22;;;6.97;;
46745;SDS011;32493;50.514;9.678;2023-05-15T03:06:29;65.07;;;6.45;;
46745;SDS011;32493;50.514;9.678;2023-05-15T03:08:40;45.15;;;5.80;;
46745;SDS011;32493;50.514;9.678;2023-05-15T03:10:45;13.25;;;5.53;;
46745;SDS011;32493;50.514;9.678;2023-05-15T03:13:12;20.95;;;5.57;;
46745;SDS011;32493;50.514;9.678;2023-05-15T03:15:25;55.20;;;6.63;;
46745;SDS011;32493;50.514;9.678;2023-05-15T03:17:34;103.10;;;7.55;;
46745;SDS011;32493;50.514;9.678;2023-05-15T03:19:41;54.42;;;6.30;;
46745;SDS011;32493;50.514;9.678;2023-05-15T03:21:59;125.88;;;8.25;;
46745;SDS011;32493;50.514;9.678;2023-05-15T03:24:10;16.83;;;6.35;;
46745;SDS011;32493;50.514;9.678;2023-05-15T03:26:15;17.25;;;5.95;;
46745;SDS011;32493;50.514;9.678;2023-05-15T03:28:21;25.30;;;6.40;;
46745;SDS011;32493;50.514;9.678;2023-05-15T03:30:26;27.88;;;5.90;;
46745;SDS011;32493;50.514;9.678;2023-05-15T03:32:47;13.93;;;6.05;;
46745;SDS011;32493;50.514;9.678;2023-05-15T03:34:58;25.05;;;5.85;;
46745;SDS011;32493;50.514;9.678;2023-05-15T03:37:06;52.33;;;6.38;;
46745;SDS011;32493;50.514;9.678;2023-05-15T03:39:13;29.48;;;5.82;;
46745;SDS011;32493;50.514;9.678;2023-05-15T03:41:19;77.97;;;6.47;;
46745;SDS011;32493;50.514;9.678;2023-05-15T03:43:26;40.08;;;5.57;;
46745;SDS011;32493;50.514;9.678;2023-05-15T03:45:36;48.75;;;5.72;;
46745;SDS011;32493;50.514;9.678;2023-05-15T03:50:09;61.15;;;5.97;;
46745;SDS011;32493;50.514;9.678;2023-05-15T03:52:15;111.32;;;7.78;;
46745;SDS011;32493;50.514;9.678;2023-05-15T03:54:20;92.45;;;7.05;;
46745;SDS011;32493;50.514;9.678;2023-05-15T03:56:30;61.60;;;6.35;;
46745;SDS011;32493;50.514;9.678;2023-05-15T03:58:37;44.75;;;5.97;;
46745;SDS011;32493;50.514;9.678;2023-05-15T04:00:42;65.07;;;6.10;;
46745;SDS011;32493;50.514;9.678;2023-05-15T04:03:02;34.58;;;5.55;;
46745;SDS011;32493;50.514;9.678;2023-05-15T04:05:11;16.92;;;5.57;;
46745;SDS011;32493;50.514;9.678;2023-05-15T04:07:17;18.45;;;5.07;;
46745;SDS011;32493;50.514;9.678;2023-05-15T04:09:22;62.33;;;6.18;;
46745;SDS011;32493;50.514;9.678;2023-05-15T04:11:42;91.55;;;7.43;;
46745;SDS011;32493;50.514;9.678;2023-05-15T04:13:50;101.97;;;6.40;;
46745;SDS011;32493;50.514;9.678;2023-05-15T04:15:56;54.90;;;6.22;;
46745;SDS011;32493;50.514;9.678;2023-05-15T04:18:07;79.22;;;6.70;;
46745;SDS011;32493;50.514;9.678;2023-05-15T04:20:15;65.40;;;6.43;;
46745;SDS011;32493;50.514;9.678;2023-05-15T04:22:25;74.53;;;7.25;;
46745;SDS011;32493;50.514;9.678;2023-05-15T04:24:32;33.47;;;6.30;;
46745;SDS011;32493;50.514;9.678;2023-05-15T04:26:37;31.73;;;6.22;;
46745;SDS011;32493;50.514;9.678;2023-05-15T04:29:00;26.40;;;6.68;;
46745;SDS011;32493;50.514;9.678;2023-05-15T04:31:12;18.98;;;6.38;;
46745;SDS011;32493;50.514;9.678;2023-05-15T04:33:20;28.70;;;5.85;;
46745;SDS011;32493;50.514;9.678;2023-05-15T04:37:32;8.65;;;5.95;;
46745;SDS011;32493;50.514;9.678;2023-05-15T04:39:42;18.73;;;6.10;;
46745;SDS011;32493;50.514;9.678;2023-05-15T04:42:00;11.35;;;5.68;;
46745;SDS011;32493;50.514;9.678;2023-05-15T04:44:11;40.25;;;6.07;;
46745;SDS011;32493;50.514;9.678;2023-05-15T04:46:16;22.52;;;5.85;;
46745;SDS011;32493;50.514;9.678;2023-05-15T04:48:30;22.65;;;5.53;;
46745;SDS011;32493;50.514;9.678;2023-05-15T04:50:37;15.30;;;5.38;;
46745;SDS011;32493;50.514;9.678;2023-05-15T04:52:48;49.63;;;5.80;;
46745;SDS011;32493;50.514;9.678;2023-05-15T04:55:05;9.40;;;5.13;;
46745;SDS011;32493;50.514;9.678;2023-05-15T04:57:12;15.98;;;5.13;;
46745;SDS011;32493;50.514;9.678;2023-05-15T04:59:20;18.17;;;5.47;;
46745;SDS011;32493;50.514;9.678;2023-05-15T05:01:44;9.57;;;4.93;;
46745;SDS011;32493;50.514;9.678;2023-05-15T05:06:02;24.60;;;5.90;;
46745;SDS011;32493;50.514;9.678;2023-05-15T05:08:08;12.90;;;5.07;;
46745;SDS011;32493;50.514;9.678;2023-05-15T05:10:14;15.68;;;5.75;;
46745;SDS011;32493;50.514;9.678;2023-05-15T05:12:21;20.35;;;6.13;;
46745;SDS011;32493;50.514;9.678;2023-05-15T05:14:32;26.95;;;5.70;;
46745;SDS011;32493;50.514;9.678;2023-05-15T05:16:38;31.73;;;6.45;;
46745;SDS011;32493;50.514;9.678;2023-05-15T05:18:51;43.10;;;6.90;;
46745;SDS011;32493;50.514;9.678;2023-05-15T05:21:03;18.08;;;7.30;;
46745;SDS011;32493;50.514;9.678;2023-05-15T05:23:11;14.30;;;7.00;;
46745;SDS011;32493;50.514;9.678;2023-05-15T05:25:32;10.40;;;7.53;;
46745;SDS011;32493;50.514;9.678;2023-05-15T05:27:39;10.43;;;6.80;;
46745;SDS011;32493;50.514;9.678;2023-05-15T05:29:44;9.75;;;7.82;;
46745;SDS011;32493;50.514;9.678;2023-05-15T05:31:51;11.95;;;7.18;;
46745;SDS011;32493;50.514;9.678;2023-05-15T05:34:10;15.07;;;7.47;;
46745;SDS011;32493;50.514;9.678;2023-05-15T05:36:17;18.48;;;7.78;;
46745;SDS011;32493;50.514;9.678;2023-05-15T05:38:23;12.73;;;7.60;;
46745;SDS011;32493;50.514;9.678;2023-05-15T05:40:29;10.38;;;7.20;;
46745;SDS011;32493;50.514;9.678;2023-05-15T05:42:40;8.82;;;7.20;;
46745;SDS011;32493;50.514;9.678;2023-05-15T05:44:51;9.88;;;7.60;;
46745;SDS011;32493;50.514;9.678;2023-05-15T05:46:56;10.20;;;7.75;;
46745;SDS011;32493;50.514;9.678;2023-05-15T05:49:04;12.88;;;8.05;;
46745;SDS011;32493;50.514;9.678;2023-05-15T05:51:12;11.05;;;7.70;;
46745;SDS011;32493;50.514;9.678;2023-05-15T05:53:18;9.88;;;7.82;;
46745;SDS011;32493;50.514;9.678;2023-05-15T05:55:26;9.85;;;7.20;;
46745;SDS011;32493;50.514;9.678;2023-05-15T05:57:49;9.13;;;7.53;;
46745;SDS011;32493;50.514;9.678;2023-05-15T05:59:54;8.95;;;7.65;;
46745;SDS011;32493;50.514;9.678;2023-05-15T06:02:01;9.65;;;7.13;;
46745;SDS011;32493;50.514;9.678;2023-05-15T06:04:06;9.15;;;7.13;;
46745;SDS011;32493;50.514;9.678;2023-05-15T06:06:14;9.50;;;7.53;;
46745;SDS011;32493;50.514;9.678;2023-05-15T06:08:24;12.40;;;7.35;;
46745;SDS011;32493;50.514;9.678;2023-05-15T06:10:39;11.80;;;7.70;;
46745;SDS011;32493;50.514;9.678;2023-05-15T06:12:55;10.15;;;7.75;;
46745;SDS011;32493;50.514;9.678;2023-05-15T06:15:07;11.30;;;7.68;;
46745;SDS011;32493;50.514;9.678;2023-05-15T06:17:14;9.05;;;7.68;;
46745;SDS011;32493;50.514;9.678;2023-05-15T06:19:19;10.70;;;8.20;;
46745;SDS011;32493;50.514;9.678;2023-05-15T06:21:29;11.73;;;8.63;;
46745;SDS011;32493;50.514;9.678;2023-05-15T06:23:45;9.82;;;7.80;;
46745;SDS011;32493;50.514;9.678;2023-05-15T06:25:51;10.45;;;8.50;;
46745;SDS011;32493;50.514;9.678;2023-05-15T06:27:59;10.48;;;8.77;;
46745;SDS011;32493;50.514;9.678;2023-05-15T06:30:05;10.93;;;8.38;;
46745;SDS011;32493;50.514;9.678;2023-05-15T06:32:13;11.52;;;9.15;;
46745;SDS011;32493;50.514;9.678;2023-05-15T06:34:23;10.80;;;9.30;;
46745;SDS011;32493;50.514;9.678;2023-05-15T06:36:38;11.18;;;9.05;;
46745;SDS011;32493;50.514;9.678;2023-05-15T06:38:44;12.20;;;8.35;;
46745;SDS011;32493;50.514;9.678;2023-05-15T06:40:49;11.13;;;8.82;;
46745;SDS011;32493;50.514;9.678;2023-05-15T06:43:01;10.52;;;8.23;;
46745;SDS011;32493;50.514;9.678;2023-05-15T06:45:17;12.63;;;9.10;;
46745;SDS011;32493;50.514;9.678;2023-05-15T06:47:23;10.60;;;8.00;;
46745;SDS011;32493;50.514;9.678;2023-05-15T06:49:28;9.10;;;7.90;;
46745;SDS011;32493;50.514;9.678;2023-05-15T06:51:37;9.27;;;7.93;;
46745;SDS011;32493;50.514;9.678;2023-05-15T06:53:55;9.82;;;8.00;;
46745;SDS011;32493;50.514;9.678;2023-05-15T06:56:02;8.57;;;7.50;;
46745;SDS011;32493;50.514;9.678;2023-05-15T06:58:17;11.45;;;7.80;;
46745;SDS011;32493;50.514;9.678;2023-05-15T07:00:27;8.50;;;6.90;;
46745;SDS011;32493;50.514;9.678;2023-05-15T07:02:35;8.65;;;7.68;;
46745;SDS011;32493;50.514;9.678;2023-05-15T07:04:41;9.73;;;7.93;;
46745;SDS011;32493;50.514;9.678;2023-05-15T07:06:50;8.68;;;7.68;;
46745;SDS011;32493;50.514;9.678;2023-05-15T07:08:55;10.75;;;9.00;;
46745;SDS011;32493;50.514;9.678;2023-05-15T07:11:14;11.68;;;7.03;;
46745;SDS011;32493;50.514;9.678;2023-05-15T07:13:26;9.35;;;7.35;;
46745;SDS011;32493;50.514;9.678;2023-05-15T07:17:39;9.43;;;7.53;;
46745;SDS011;32493;50.514;9.678;2023-05-15T07:19:48;9.68;;;7.47;;
46745;SDS011;32493;50.514;9.678;2023-05-15T07:21:56;10.68;;;8.90;;
46745;SDS011;32493;50.514;9.678;2023-05-15T07:24:05;13.15;;;9.38;;
46745;SDS011;32493;50.514;9.678;2023-05-15T07:28:32;7.07;;;6.38;;
46745;SDS011;32493;50.514;9.678;2023-05-15T07:30:39;6.63;;;5.97;;
46745;SDS011;32493;50.514;9.678;2023-05-15T07:32:48;13.10;;;6.93;;
46745;SDS011;32493;50.514;9.678;2023-05-15T07:35:03;7.80;;;6.78;;
46745;SDS011;32493;50.514;9.678;2023-05-15T07:37:11;8.90;;;7.30;;
46745;SDS011;32493;50.514;9.678;2023-05-15T07:39:17;7.78;;;6.97;;
46745;SDS011;32493;50.514;9.678;2023-05-15T07:41:25;12.55;;;7.55;;
46745;SDS011;32493;50.514;9.678;2023-05-15T07:43:36;8.75;;;7.05;;
46745;SDS011;32493;50.514;9.678;2023-05-15T07:45:45;9.57;;;7.82;;
46745;SDS011;32493;50.514;9.678;2023-05-15T07:47:51;9.10;;;7.38;;
46745;SDS011;32493;50.514;9.678;2023-05-15T07:49:59;10.90;;;6.50;;
46745;SDS011;32493;50.514;9.678;2023-05-15T07:52:05;8.77;;;6.55;;
46745;SDS011;32493;50.514;9.678;2023-05-15T07:54:13;7.25;;;6.55;;
46745;SDS011;32493;50.514;9.678;2023-05-15T07:56:20;7.80;;;6.88;;
46745;SDS011;32493;50.514;9.678;2023-05-15T07:58:29;9.52;;;6.60;;
46745;SDS011;32493;50.514;9.678;2023-05-15T08:00:40;8.68;;;6.32;;
46745;SDS011;32493;50.514;9.678;2023-05-15T08:02:59;8.70;;;6.40;;
46745;SDS011;32493;50.514;9.678;2023-05-15T08:05:08;13.02;;;7.43;;
46745;SDS011;32493;50.514;9.678;2023-05-15T08:07:14;8.27;;;6.53;;
46745;SDS011;32493;50.514;9.678;2023-05-15T08:09:21;7.60;;;6.68;;
46745;SDS011;32493;50.514;9.678;2023-05-15T08:11:28;7.40;;;6.53;;
46745;SDS011;32493;50.514;9.678;2023-05-15T08:13:40;10.02;;;6.85;;
46745;SDS011;32493;50.514;9.678;2023-05-15T08:15:50;9.02;;;6.50;;
46745;SDS011;32493;50.514;9.678;2023-05-15T08:17:56;10.13;;;7.00;;
46745;SDS011;32493;50.514;9.678;2023-05-15T08:20:03;7.57;;;6.88;;
46745;SDS011;32493;50.514;9.678;2023-05-15T08:22:10;9.73;;;6.88;;
46745;SDS011;32493;50.514;9.678;2023-05-15T08:24:17;7.05;;;6.35;;
46745;SDS011;32493;50.514;9.678;2023-05-15T08:26:26;10.50;;;7.10;;
46745;SDS011;32493;50.514;9.678;2023-05-15T08:28:32;11.95;;;7.15;;
46745;SDS011;32493;50.514;9.678;2023-05-15T08:30:38;8.93;;;6.20;;
46745;SDS011;32493;50.514;9.678;2023-05-15T08:32:47;13.32;;;6.47;;
46745;SDS011;32493;50.514;9.678;2023-05-15T08:34:57;8.45;;;6.57;;
46745;SDS011;32493;50.514;9.678;2023-05-15T08:37:09;8.82;;;7.25;;
46745;SDS011;32493;50.514;9.678;2023-05-15T08:39:15;9.05;;;6.78;;
46745;SDS011;32493;50.514;9.678;2023-05-15T08:41:23;7.40;;;6.70;;
46745;SDS011;32493;50.514;9.678;2023-05-15T08:43:42;9.63;;;6.85;;
46745;SDS011;32493;50.514;9.678;2023-05-15T08:45:50;8.18;;;7.10;;
46745;SDS011;32493;50.514;9.678;2023-05-15T08:47:57;10.23;;;6.75;;
46745;SDS011;32493;50.514;9.678;2023-05-15T08:50:05;7.03;;;6.35;;
46745;SDS011;32493;50.514;9.678;2023-05-15T08:52:16;8.70;;;6.95;;
46745;SDS011;32493;50.514;9.678;2023-05-15T08:54:23;8.60;;;6.50;;
46745;SDS011;32493;50.514;9.678;2023-05-15T08:56:31;10.18;;;6.32;;
46745;SDS011;32493;50.514;9.678;2023-05-15T08:58:43;7.88;;;6.60;;
46745;SDS011;32493;50.514;9.678;2023-05-15T09:00:52;9.07;;;6.82;;
46745;SDS011;32493;50.514;9.678;2023-05-15T09:02:58;8.25;;;6.60;;
46745;SDS011;32493;50.514;9.678;2023-05-15T09:05:07;12.13;;;6.50;;
46745;SDS011;32493;50.514;9.678;2023-05-15T09:07:18;10.23;;;7.10;;
46745;SDS011;32493;50.514;9.678;2023-05-15T09:09:24;10.90;;;7.17;;
46745;SDS011;32493;50.514;9.678;2023-05-15T09:11:47;8.43;;;6.53;;
46745;SDS011;32493;50.514;9.678;2023-05-15T09:13:55;10.98;;;6.88;;
46745;SDS011;32493;50.514;9.678;2023-05-15T09:16:06;9.68;;;6.93;;
46745;SDS011;32493;50.514;9.678;2023-05-15T09:18:13;9.90;;;7.10;;
46745;SDS011;32493;50.514;9.678;2023-05-15T09:20:29;10.43;;;7.00;;
46745;SDS011;32493;50.514;9.678;2023-05-15T09:23:04;7.63;;;6.70;;
46745;SDS011;32493;50.514;9.678;2023-05-15T09:25:35;9.65;;;6.43;;
46745;SDS011;32493;50.514;9.678;2023-05-15T09:27:56;9.65;;;6.30;;
46745;SDS011;32493;50.514;9.678;2023-05-15T09:30:09;12.93;;;6.57;;
46745;SDS011;32493;50.514;9.678;2023-05-15T09:32:16;9.68;;;6.22;;
46745;SDS011;32493;50.514;9.678;2023-05-15T09:34:27;7.80;;;6.07;;
46745;SDS011;32493;50.514;9.678;2023-05-15T09:36:41;8.82;;;6.13;;
46745;SDS011;32493;50.514;9.678;2023-05-15T09:38:47;12.82;;;6.40;;
46745;SDS011;32493;50.514;9.678;2023-05-15T09:41:01;10.15;;;5.90;;
46745;SDS011;32493;50.514;9.678;2023-05-15T09:43:11;7.25;;;5.57;;
46745;SDS011;32493;50.514;9.678;2023-05-15T09:45:16;9.27;;;5.72;;
46745;SDS011;32493;50.514;9.678;2023-05-15T09:47:21;6.50;;;4.63;;
46745;SDS011;32493;50.514;9.678;2023-05-15T09:49:28;9.77;;;5.10;;
46745;SDS011;32493;50.514;9.678;2023-05-15T09:51:37;6.88;;;4.47;;
46745;SDS011;32493;50.514;9.678;2023-05-15T09:53:44;10.80;;;5.18;;
46745;SDS011;32493;50.514;9.678;2023-05-15T09:55:53;7.32;;;5.00;;
46745;SDS011;32493;50.514;9.678;2023-05-15T09:58:05;7.80;;;4.60;;
46745;SDS011;32493;50.514;9.678;2023-05-15T10:00:15;8.20;;;4.05;;
46745;SDS011;32493;50.514;9.678;2023-05-15T10:02:38;9.68;;;4.47;;
46745;SDS011;32493;50.514;9.678;2023-05-15T10:04:53;6.95;;;4.45;;
46745;SDS011;32493;50.514;9.678;2023-05-15T10:07:02;5.65;;;4.68;;
46745;SDS011;32493;50.514;9.678;2023-05-15T10:09:13;9.38;;;4.57;;
46745;SDS011;32493;50.514;9.678;2023-05-15T10:11:22;7.85;;;4.30;;
46745;SDS011;32493;50.514;9.678;2023-05-15T10:13:29;6.32;;;4.30;;
46745;SDS011;32493;50.514;9.678;2023-05-15T10:15:40;6.88;;;4.25;;
46745;SDS011;32493;50.514;9.678;2023-05-15T10:17:46;8.75;;;4.85;;
46745;SDS011;32493;50.514;9.678;2023-05-15T10:19:55;7.38;;;4.47;;
46745;SDS011;32493;50.514;9.678;2023-05-15T10:22:03;6.68;;;3.60;;
46745;SDS011;32493;50.514;9.678;2023-05-15T10:24:14;5.22;;;3.08;;
46745;SDS011;32493;50.514;9.678;2023-05-15T10:26:23;5.38;;;3.75;;
46745;SDS011;32493;50.514;9.678;2023-05-15T10:28:38;8.05;;;3.70;;
46745;SDS011;32493;50.514;9.678;2023-05-15T10:30:47;4.15;;;3.17;;
46745;SDS011;32493;50.514;9.678;2023-05-15T10:32:55;5.22;;;3.08;;
46745;SDS011;32493;50.514;9.678;2023-05-15T10:35:08;7.95;;;3.83;;
46745;SDS011;32493;50.514;9.678;2023-05-15T10:39:21;6.87;;;3.23;;
46745;SDS011;32493;50.514;9.678;2023-05-15T10:41:31;4.45;;;2.92;;
46745;SDS011;32493;50.514;9.678;2023-05-15T10:43:40;5.43;;;3.20;;
46745;SDS011;32493;50.514;9.678;2023-05-15T10:45:51;5.88;;;3.45;;
46745;SDS011;32493;50.514;9.678;2023-05-15T10:47:57;5.43;;;3.05;;
46745;SDS011;32493;50.514;9.678;2023-05-15T10:50:07;4.85;;;2.45;;
46745;SDS011;32493;50.514;9.678;2023-05-15T10:52:16;6.40;;;3.00;;
46745;SDS011;32493;50.514;9.678;2023-05-15T10:54:23;5.35;;;3.75;;
46745;SDS011;32493;50.514;9.678;2023-05-15T10:56:29;5.03;;;3.45;;
46745;SDS011;32493;50.514;9.678;2023-05-15T10:58:35;6.15;;;3.22;;
46745;SDS011;32493;50.514;9.678;2023-05-15T11:00:46;8.15;;;3.42;;
46745;SDS011;32493;50.514;9.678;2023-05-15T11:02:54;5.68;;;2.78;;
46745;SDS011;32493;50.514;9.678;2023-05-15T11:05:06;6.50;;;3.05;;
46745;SDS011;32493;50.514;9.678;2023-05-15T11:07:14;5.57;;;2.80;;
46745;SDS011;32493;50.514;9.678;2023-05-15T11:09:37;6.03;;;3.30;;
46745;SDS011;32493;50.514;9.678;2023-05-15T11:11:54;5.30;;;3.17;;
46745;SDS011;32493;50.514;9.678;2023-05-15T11:14:13;6.15;;;3.20;;
46745;SDS011;32493;50.514;9.678;2023-05-15T11:21:50;5.25;;;2.97;;
46745;SDS011;32493;50.514;9.678;2023-05-15T11:24:04;3.85;;;3.42;;
46745;SDS011;32493;50.514;9.678;2023-05-15T11:26:11;5.65;;;2.90;;
46745;SDS011;32493;50.514;9.678;2023-05-15T11:28:19;6.05;;;3.28;;
46745;SDS011;32493;50.514;9.678;2023-05-15T11:30:33;10.68;;;7.50;;
46745;SDS011;32493;50.514;9.678;2023-05-15T11:32:53;12.50;;;6.00;;
46745;SDS011;32493;50.514;9.678;2023-05-15T11:35:07;8.30;;;5.15;;
46745;SDS011;32493;50.514;9.678;2023-05-15T11:37:16;7.97;;;3.33;;
46745;SDS011;32493;50.514;9.678;2023-05-15T11:39:24;7.65;;;3.50;;
46745;SDS011;32493;50.514;9.678;2023-05-15T11:41:30;6.47;;;3.33;;
46745;SDS011;32493;50.514;9.678;2023-05-15T11:43:39;7.07;;;3.47;;
46745;SDS011;32493;50.514;9.678;2023-05-15T11:45:52;6.07;;;3.50;;
46745;SDS011;32493;50.514;9.678;2023-05-15T11:48:00;4.82;;;3.38;;
46745;SDS011;32493;50.514;9.678;2023-05-15T11:50:11;6.43;;;3.90;;
46745;SDS011;32493;50.514;9.678;2023-05-15T11:52:16;3.78;;;2.60;;
46745;SDS011;32493;50.514;9.678;2023-05-15T11:54:22;4.88;;;3.33;;
46745;SDS011;32493;50.514;9.678;2023-05-15T11:56:28;4.85;;;3.10;;
46745;SDS011;32493;50.514;9.678;2023-05-15T11:58:36;5.55;;;2.90;;
46745;SDS011;32493;50.514;9.678;2023-05-15T12:00:46;4.95;;;3.15;;
46745;SDS011;32493;50.514;9.678;2023-05-15T12:02:54;6.53;;;3.55;;
46745;SDS011;32493;50.514;9.678;2023-05-15T12:04:59;5.20;;;2.80;;
46745;SDS011;32493;50.514;9.678;2023-05-15T12:07:12;6.68;;;3.45;;
46745;SDS011;32493;50.514;9.678;2023-05-15T12:09:19;4.63;;;3.10;;
46745;SDS011;32493;50.514;9.678;2023-05-15T12:11:28;4.72;;;3.30;;
46745;SDS011;32493;50.514;9.678;2023-05-15T12:13:33;9.32;;;4.70;;
46745;SDS011;32493;50.514;9.678;2023-05-15T12:15:42;6.32;;;3.85;;
46745;SDS011;32493;50.514;9.678;2023-05-15T12:17:48;8.88;;;3.20;;
46745;SDS011;32493;50.514;9.678;2023-05-15T12:19:55;3.70;;;2.97;;
46745;SDS011;32493;50.514;9.678;2023-05-15T12:22:09;3.65;;;2.92;;
46745;SDS011;32493;50.514;9.678;2023-05-15T12:24:20;4.78;;;3.10;;
46745;SDS011;32493;50.514;9.678;2023-05-15T12:26:27;8.77;;;2.88;;
46745;SDS011;32493;50.514;9.678;2023-05-15T12:28:35;5.65;;;2.95;;
46745;SDS011;32493;50.514;9.678;2023-05-15T12:30:41;4.28;;;2.80;;
46745;SDS011;32493;50.514;9.678;2023-05-15T12:32:48;5.38;;;3.00;;
46745;SDS011;32493;50.514;9.678;2023-05-15T12:35:07;5.28;;;2.65;;
46745;SDS011;32493;50.514;9.678;2023-05-15T12:37:17;6.75;;;2.63;;
46745;SDS011;32493;50.514;9.678;2023-05-15T12:39:24;3.75;;;2.75;;
46745;SDS011;32493;50.514;9.678;2023-05-15T12:41:32;4.03;;;2.83;;
46745;SDS011;32493;50.514;9.678;2023-05-15T12:43:43;3.20;;;2.55;;
46745;SDS011;32493;50.514;9.678;2023-05-15T12:45:50;5.78;;;2.45;;
46745;SDS011;32493;50.514;9.678;2023-05-15T12:50:02;3.67;;;2.67;;
46745;SDS011;32493;50.514;9.678;2023-05-15T12:52:22;5.95;;;2.80;;
46745;SDS011;32493;50.514;9.678;2023-05-15T12:54:37;5.03;;;3.30;;
46745;SDS011;32493;50.514;9.678;2023-05-15T12:56:45;8.05;;;4.10;;
46745;SDS011;32493;50.514;9.678;2023-05-15T12:58:52;13.13;;;5.40;;
46745;SDS011;32493;50.514;9.678;2023-05-15T13:00:59;6.55;;;3.25;;
46745;SDS011;32493;50.514;9.678;2023-05-15T13:03:07;10.93;;;3.53;;
46745;SDS011;32493;50.514;9.678;2023-05-15T13:05:15;8.25;;;3.47;;
46745;SDS011;32493;50.514;9.678;2023-05-15T13:07:25;5.90;;;3.65;;
46745;SDS011;32493;50.514;9.678;2023-05-15T13:09:33;6.20;;;4.13;;
46745;SDS011;32493;50.514;9.678;2023-05-15T13:11:42;6.45;;;4.40;;
46745;SDS011;32493;50.514;9.678;2023-05-15T13:13:50;6.72;;;5.20;;
46745;SDS011;32493;50.514;9.678;2023-05-15T13:15:56;9.07;;;6.70;;
46745;SDS011;32493;50.514;9.678;2023-05-15T13:18:02;9.48;;;7.88;;
46745;SDS011;32493;50.514;9.678;2023-05-15T13:20:10;11.93;;;9.63;;
46745;SDS011;32493;50.514;9.678;2023-05-15T13:22:16;7.30;;;6.47;;